^^
Grace C. Lehan Memorial Weather Station Historical Data
Daily Summary for July 19, 2021 Units:  English    Metric   Both
Daily Weekly Monthly Yearly
  High: Low: Average:
Temperature: 43.7 °F 27.3 °F 34.1 °F
Dew Point: 31.9 °F 23 °F 25.6 °F
Humidity: 85% 56% 71%
Wind Speed: 6mph 0mph 0.5mph
Wind Gust: 20mph - -
Wind- - WSW
Pressure: 30.03 in 29.87 in -
Precipitation: 0.00 in    
 
 
Tabular Data for July 19, 2021
Time Temperature Dew Point Pressure Wind Wind Speed Wind Gust Humidity Rainfall Rate (Hourly) solar
00:04 31.8 °F 23.8 °F 29.87 in Calm   6 mph 72% 0.00 in 0 W/m2
00:09 31.7 °F 23.9 °F 29.87 in Calm   1 mph 72.7% 0.00 in 0 W/m2
00:14 31.5 °F 23.9 °F 29.87 in Calm   1 mph 73% 0.00 in 0 W/m2
00:19 31.4 °F 23.8 °F 29.88 in WNW 0.1 mph 2 mph 73% 0.00 in 0 W/m2
00:24 31.4 °F 23.7 °F 29.88 in WNW 0.1 mph 2 mph 73% 0.00 in 0 W/m2
00:29 31.3 °F 23.9 °F 29.88 in WNW 0.3 mph 4 mph 73.9% 0.00 in 0 W/m2
00:34 31.2 °F 23.9 °F 29.88 in WNW 0.1 mph 4 mph 74% 0.00 in 0 W/m2
00:39 31.2 °F 23.9 °F 29.88 in Calm   3 mph 74% 0.00 in 0 W/m2
00:44 31.1 °F 23.8 °F 29.88 in WNW 0.1 mph 3 mph 74% 0.00 in 0 W/m2
00:49 31.1 °F 23.8 °F 29.88 in WNW 0.1 mph 3 mph 74.1% 0.00 in 0 W/m2
00:54 31.1 °F 24.1 °F 29.88 in Calm   3 mph 75% 0.00 in 0 W/m2
00:59 31 °F 23.9 °F 29.88 in Calm   3 mph 74.8% 0.00 in 0 W/m2
01:04 30.9 °F 23.9 °F 29.89 in Calm   3 mph 75% 0.00 in 0 W/m2
01:09 30.8 °F 23.8 °F 29.89 in Calm     75% 0.00 in 0 W/m2
01:14 30.8 °F 23.8 °F 29.89 in Calm     75% 0.00 in 0 W/m2
01:19 30.8 °F 23.8 °F 29.90 in Calm     75% 0.00 in 0 W/m2
01:24 30.8 °F 23.8 °F 29.90 in Calm     75% 0.00 in 0 W/m2
01:29 30.8 °F 23.8 °F 29.90 in Calm     75% 0.00 in 0 W/m2
01:34 30.8 °F 23.8 °F 29.90 in Calm     75% 0.00 in 0 W/m2
01:39 30.7 °F 23.8 °F 29.90 in Calm     75% 0.00 in 0 W/m2
01:44 30.6 °F 23.8 °F 29.91 in Calm     75.4% 0.00 in 0 W/m2
01:49 30.4 °F 23.8 °F 29.91 in Calm     76% 0.00 in 0 W/m2
01:54 30.2 °F 23.7 °F 29.91 in Calm     76.6% 0.00 in 0 W/m2
01:59 30 °F 23.7 °F 29.91 in Calm     77% 0.00 in 0 W/m2
02:04 29.8 °F 23.5 °F 29.91 in Calm     77.1% 0.00 in 0 W/m2
02:09 29.7 °F 23.6 °F 29.91 in Calm     78% 0.00 in 0 W/m2
02:14 29.5 °F 23.5 °F 29.92 in Calm     78% 0.00 in 0 W/m2
02:19 29.3 °F 23.6 °F 29.92 in Calm     78.9% 0.00 in 0 W/m2
02:24 29.2 °F 23.5 °F 29.92 in WNW 0.1 mph 2 mph 79% 0.00 in 0 W/m2
02:29 29.2 °F 23.6 °F 29.92 in Calm   2 mph 79.3% 0.00 in 0 W/m2
02:34 29.1 °F 23.7 °F 29.92 in Calm   2 mph 80% 0.00 in 0 W/m2
02:39 29 °F 23.6 °F 29.92 in Calm     80% 0.00 in 0 W/m2
02:44 29 °F 23.6 °F 29.92 in Calm     80% 0.00 in 0 W/m2
02:49 28.9 °F 23.8 °F 29.92 in Calm     80.8% 0.00 in 0 W/m2
02:54 28.9 °F 23.8 °F 29.91 in Calm     81% 0.00 in 0 W/m2
02:59 28.8 °F 23.7 °F 29.91 in Calm     81% 0.00 in 0 W/m2
03:04 28.8 °F 23.7 °F 29.91 in Calm     81% 0.00 in 0 W/m2
03:09 28.8 °F 23.7 °F 29.91 in Calm     81% 0.00 in 0 W/m2
03:14 28.7 °F 23.6 °F 29.91 in Calm     81% 0.00 in 0 W/m2
03:16 28.6 °F 23.6 °F 29.91 in Calm     81% 0.00 in 0 W/m2
03:30 28.5 °F 23.7 °F 29.91 in Calm     82% 0.00 in 0 W/m2
04:04 27.9 °F 23.4 °F 29.92 in Calm     82.9% 0.00 in 0 W/m2
04:09 27.8 °F 23.3 °F 29.92 in Calm     83% 0.00 in 0 W/m2
04:14 27.7 °F 23.2 °F 29.92 in Calm     83% 0.00 in 0 W/m2
04:19 27.6 °F 23.2 °F 29.92 in Calm     83.1% 0.00 in 0 W/m2
04:24 27.6 °F 23.4 °F 29.92 in Calm     83.9% 0.00 in 0 W/m2
04:29 27.7 °F 23.5 °F 29.93 in Calm     83.9% 0.00 in 0 W/m2
04:34 27.8 °F 23.3 °F 29.93 in Calm     83% 0.00 in 0 W/m2
04:39 27.9 °F 23.4 °F 29.93 in Calm     83% 0.00 in 0 W/m2
04:44 28 °F 23.5 °F 29.93 in WNW 0.1 mph 3 mph 83% 0.00 in 0 W/m2
04:49 28 °F 23.5 °F 29.93 in WNW 0.1 mph 3 mph 83% 0.00 in 0 W/m2
04:54 28 °F 23.5 °F 29.94 in WNW 0.8 mph 4 mph 83% 0.00 in 0 W/m2
04:59 28.1 °F 23.6 °F 29.94 in Calm   4 mph 83% 0.00 in 0 W/m2
05:04 28.1 °F 23.6 °F 29.95 in Calm   4 mph 83% 0.00 in 0 W/m2
05:09 28 °F 23.5 °F 29.95 in WNW 0.1 mph 3 mph 83% 0.00 in 0 W/m2
05:14 28 °F 23.5 °F 29.95 in WNW 0.2 mph 3 mph 83% 0.00 in 0 W/m2
05:19 27.9 °F 23.4 °F 29.95 in Calm   3 mph 83% 0.00 in 0 W/m2
05:24 27.9 °F 23.4 °F 29.95 in Calm   3 mph 83% 0.00 in 0 W/m2
05:29 27.9 °F 23.4 °F 29.95 in Calm   3 mph 83% 0.00 in 0 W/m2
05:34 27.8 °F 23.3 °F 29.95 in Calm   3 mph 83% 0.00 in 0 W/m2
05:39 27.8 °F 23.3 °F 29.95 in WNW 0.5 mph 3 mph 83% 0.00 in 0 W/m2
05:44 27.8 °F 23.3 °F 29.96 in WNW 0.1 mph 3 mph 83% 0.00 in 0 W/m2
05:49 27.8 °F 23.3 °F 29.96 in Calm   3 mph 83% 0.00 in 0 W/m2
05:54 27.8 °F 23.3 °F 29.96 in Calm   3 mph 83% 0.00 in 0 W/m2
05:59 27.8 °F 23.3 °F 29.96 in Calm   3 mph 83% 0.00 in 0 W/m2
06:04 27.8 °F 23.3 °F 29.96 in Calm   3 mph 83% 0.00 in 0 W/m2
06:09 27.7 °F 23.3 °F 29.96 in Calm     83% 0.00 in 0 W/m2
06:14 27.6 °F 23.2 °F 29.96 in Calm     83% 0.00 in 0 W/m2
06:19 27.6 °F 23.1 °F 29.96 in Calm     83% 0.00 in 0 W/m2
06:24 27.5 °F 23 °F 29.96 in Calm     83% 0.00 in 0 W/m2
06:29 27.5 °F 23.2 °F 29.97 in Calm     83.7% 0.00 in 0 W/m2
06:34 27.5 °F 23.3 °F 29.97 in Calm     84% 0.00 in 0 W/m2
06:39 27.4 °F 23.2 °F 29.97 in Calm     84% 0.00 in 0 W/m2
06:44 27.4 °F 23.1 °F 29.97 in Calm     83.9% 0.00 in 0 W/m2
06:49 27.3 °F 23.2 °F 29.98 in Calm     84% 0.00 in 0 W/m2
06:54 27.4 °F 23.2 °F 29.98 in Calm     84% 0.00 in 0 W/m2
06:59 27.4 °F 23.2 °F 29.98 in Calm     84% 0.00 in 0 W/m2
07:04 27.4 °F 23.2 °F 29.98 in Calm     84% 0.00 in 0 W/m2
07:09 27.4 °F 23.2 °F 29.98 in Calm     84% 0.00 in 0 W/m2
07:14 27.4 °F 23.2 °F 29.98 in Calm     84% 0.00 in 0 W/m2
07:19 27.3 °F 23.1 °F 29.99 in Calm     84.1% 0.00 in 7 W/m2
07:24 27.3 °F 23.1 °F 29.99 in Calm     84.1% 0.00 in 12 W/m2
07:29 27.3 °F 23.4 °F 29.99 in Calm     84.9% 0.00 in 12 W/m2
07:34 27.4 °F 23.5 °F 29.99 in Calm     85% 0.00 in 14 W/m2
07:39 27.6 °F 23.7 °F 29.99 in Calm     85% 0.00 in 18 W/m2
07:44 27.8 °F 23.9 °F 29.99 in Calm     85% 0.00 in 21 W/m2
07:49 27.9 °F 24 °F 29.99 in Calm     85% 0.00 in 46 W/m2
07:54 28.2 °F 24.3 °F 29.99 in Calm     85% 0.00 in 51 W/m2
07:59 28.6 °F 24.7 °F 29.99 in Calm     85% 0.00 in 40 W/m2
08:04 29.4 °F 25.5 °F 29.99 in Calm     85% 0.00 in 74 W/m2
08:09 29.8 °F 25.8 °F 30.00 in Calm     85% 0.00 in 74 W/m2
08:14 30.5 °F 26.1 °F 30.00 in Calm     83.5% 0.00 in 46 W/m2
08:19 31 °F 26.3 °F 30.00 in Calm     82.2% 0.00 in 128 W/m2
08:24 31.6 °F 26.5 °F 30.00 in Calm     81.1% 0.00 in 162 W/m2
08:29 32.3 °F 26.9 °F 30.00 in Calm     80.1% 0.00 in 162 W/m2
08:34 32.9 °F 27 °F 30.00 in Calm   1 mph 78.4% 0.00 in 162 W/m2
08:39 33.5 °F 27 °F 30.00 in WNW 0.5 mph 3 mph 76.6% 0.00 in 134 W/m2
08:44 33.9 °F 27 °F 30.00 in Calm   3 mph 75.5% 0.00 in 104 W/m2
08:49 34 °F 26.5 °F 30.00 in Calm   3 mph 73.7% 0.00 in 167 W/m2
08:54 33.9 °F 26.5 °F 30.00 in Calm   3 mph 74% 0.00 in 142 W/m2
08:59 34 °F 26.6 °F 30.00 in Calm   3 mph 74% 0.00 in 162 W/m2
09:04 34.1 °F 26.6 °F 30.00 in WNW 0.1 mph 3 mph 73.7% 0.00 in 93 W/m2
09:09 33.9 °F 26.3 °F 30.01 in Calm   1 mph 73.4% 0.00 in 69 W/m2
09:14 33.7 °F 26.3 °F 30.01 in Calm   1 mph 74% 0.00 in 69 W/m2
09:19 33.4 °F 26.3 °F 30.01 in Calm   1 mph 74.6% 0.00 in 155 W/m2
09:20 33.4 °F 26.3 °F 30.01 in Calm   1 mph 75% 0.00 in 93 W/m2
09:30 33.6 °F 26.9 °F 30.01 in Calm   2 mph 76% 0.00 in 97 W/m2
10:00 35.4 °F 28.6 °F 30.00 in Calm     76% 0.00 in 118 W/m2
10:30 37.2 °F 30.4 °F 30.00 in Calm   1 mph 76% 0.00 in 191 W/m2
11:00 41.3 °F 31.9 °F 29.98 in Calm   6 mph 69% 0.00 in 301 W/m2
11:30 43.7 °F 30.7 °F 29.97 in WSW 2 mph 10 mph 60% 0.00 in 201 W/m2
12:09 42.2 °F 29.8 °F 29.97 in WSW 0.3 mph 10 mph 61.3% 0.00 in 201 W/m2
12:14 42.2 °F 29.9 °F 29.95 in WSW 2 mph 9 mph 61.4% 0.00 in 176 W/m2
12:19 42.2 °F 29.7 °F 29.95 in West 2.2 mph 9 mph 61% 0.00 in 253 W/m2
12:24 42.3 °F 29.6 °F 29.95 in WNW 3.5 mph 12 mph 60.6% 0.00 in 253 W/m2
12:29 42.4 °F 29.3 °F 29.95 in West 0.8 mph 12 mph 59.5% 0.00 in 188 W/m2
12:34 42.5 °F 29.6 °F 29.94 in WSW 1.2 mph 12 mph 60% 0.00 in 211 W/m2
12:39 42.5 °F 29.6 °F 29.94 in SW 1.5 mph 6 mph 60% 0.00 in 185 W/m2
12:44 42.4 °F 29.5 °F 29.94 in WSW 3.2 mph 12 mph 59.9% 0.00 in 309 W/m2
12:49 42.4 °F 29.2 °F 29.94 in WSW 0.8 mph 12 mph 59.1% 0.00 in 309 W/m2
12:54 42.7 °F 29.6 °F 29.94 in West 0.4 mph 12 mph 59.6% 0.00 in 250 W/m2
12:59 42.9 °F 29.6 °F 29.94 in West 1.2 mph 12 mph 59.1% 0.00 in 223 W/m2
13:04 43.1 °F 29.4 °F 29.94 in SSW 0.9 mph 12 mph 58.3% 0.00 in 223 W/m2
13:09 43.1 °F 29.1 °F 29.93 in SW 1.2 mph 5 mph 57.4% 0.00 in 167 W/m2
13:14 43 °F 28.6 °F 29.94 in West 1.7 mph 7 mph 56.6% 0.00 in 127 W/m2
13:19 42.7 °F 28.4 °F 29.93 in WSW 1.4 mph 7 mph 56.5% 0.00 in 149 W/m2
13:24 42.5 °F 28.4 °F 29.94 in SW 0.8 mph 7 mph 57% 0.00 in 134 W/m2
13:29 42.4 °F 28.5 °F 29.94 in WSW 1.3 mph 7 mph 57.6% 0.00 in 121 W/m2
13:34 42.2 °F 28.9 °F 29.94 in WSW 0.9 mph 9 mph 58.9% 0.00 in 181 W/m2
13:39 42.3 °F 28.6 °F 29.93 in SW 2.2 mph 9 mph 58.1% 0.00 in 148 W/m2
13:44 42.5 °F 29.2 °F 29.93 in SW 1.5 mph 11 mph 59% 0.00 in 178 W/m2
13:49 42.7 °F 28.5 °F 29.93 in SW 4.5 mph 13 mph 56.8% 0.00 in 178 W/m2
13:54 42.7 °F 28.1 °F 29.93 in SW 2.3 mph 13 mph 56% 0.00 in 130 W/m2
13:59 42.6 °F 28.4 °F 29.94 in WSW 1.3 mph 13 mph 56.8% 0.00 in 134 W/m2
14:04 42.5 °F 28.5 °F 29.94 in WSW 3.1 mph 13 mph 57.3% 0.00 in 137 W/m2
14:09 42.4 °F 28.5 °F 29.94 in West 4.2 mph 13 mph 57.6% 0.00 in 151 W/m2
14:14 42.4 °F 28.6 °F 29.94 in West 2.7 mph 13 mph 57.7% 0.00 in 309 W/m2
14:19 42.6 °F 29 °F 29.94 in WNW 3.4 mph 13 mph 58.3% 0.00 in 165 W/m2
14:24 42.6 °F 28.9 °F 29.94 in West 2.5 mph 13 mph 58% 0.00 in 209 W/m2
14:29 42.7 °F 28.9 °F 29.94 in WNW 3.1 mph 13 mph 57.8% 0.00 in 279 W/m2
14:34 42.9 °F 29 °F 29.94 in West 2.3 mph 13 mph 57.8% 0.00 in 141 W/m2
14:39 42.9 °F 28.6 °F 29.94 in WSW 2.9 mph 14 mph 56.7% 0.00 in 137 W/m2
14:44 42.6 °F 28.5 °F 29.95 in SW 4.2 mph 14 mph 57.1% 0.00 in 125 W/m2
14:49 42.3 °F 28.8 °F 29.95 in WSW 2.3 mph 14 mph 58.6% 0.00 in 111 W/m2
14:54 42 °F 28.7 °F 29.95 in WSW 2.7 mph 14 mph 58.9% 0.00 in 100 W/m2
14:59 41.7 °F 28.1 °F 29.95 in WSW 6 mph 20 mph 58.2% 0.00 in 98 W/m2
15:04 41.3 °F 28.1 °F 29.96 in WNW 3.4 mph 20 mph 59.1% 0.00 in 88 W/m2
15:09 41.1 °F 28.3 °F 29.96 in West 4.4 mph 12 mph 60% 0.00 in 69 W/m2
15:14 40.8 °F 28 °F 29.96 in WNW 4.1 mph 12 mph 60% 0.00 in 56 W/m2
15:19 40.6 °F 27.8 °F 29.96 in West 4.3 mph 12 mph 60% 0.00 in 54 W/m2
15:24 40.4 °F 27.9 °F 29.96 in West 3.9 mph 12 mph 60.5% 0.00 in 54 W/m2
15:29 40.3 °F 27.9 °F 29.97 in West 2 mph 12 mph 61% 0.00 in 49 W/m2
15:34 40.2 °F 27.8 °F 29.97 in WSW 2 mph 12 mph 61% 0.00 in 40 W/m2
15:39 40 °F 27.7 °F 29.97 in West 3.7 mph 17 mph 61% 0.00 in 35 W/m2
15:44 39.8 °F 27.5 °F 29.97 in WNW 2.8 mph 17 mph 61% 0.00 in 33 W/m2
15:49 39.7 °F 27.7 °F 29.98 in West 1.5 mph 17 mph 61.9% 0.00 in 33 W/m2
15:54 39.6 °F 27.6 °F 29.98 in West 1.1 mph 17 mph 62% 0.00 in 28 W/m2
15:59 39.5 °F 27.6 °F 29.98 in West 0.7 mph 17 mph 62% 0.00 in 25 W/m2
16:00 39.4 °F 27.5 °F 29.98 in Calm   17 mph 62% 0.00 in 23 W/m2
16:09 39.3 °F 27.5 °F 29.98 in West 0.4 mph 3 mph 62.4% 0.00 in 19 W/m2
16:14 39.2 °F 27.7 °F 29.98 in West 0.4 mph 4 mph 63% 0.00 in 18 W/m2
16:19 39.2 °F 27.5 °F 29.98 in WSW 0.5 mph 4 mph 62.5% 0.00 in 14 W/m2
16:24 39.1 °F 27.4 °F 29.98 in West 0.6 mph 4 mph 62.6% 0.00 in 12 W/m2
16:29 39 °F 27.3 °F 29.98 in West 0.6 mph 5 mph 62.6% 0.00 in 12 W/m2
16:34 38.9 °F 27.4 °F 29.98 in West 0.2 mph 5 mph 63% 0.00 in 11 W/m2
16:39 38.9 °F 27.4 °F 29.99 in West 0.1 mph 3 mph 63% 0.00 in 9 W/m2
16:44 38.9 °F 27.6 °F 29.99 in Calm   3 mph 63.5% 0.00 in 7 W/m2
16:49 38.8 °F 27.3 °F 29.99 in West 0.9 mph 4 mph 63% 0.00 in 5 W/m2
16:54 38.7 °F 27 °F 29.99 in WSW 1.8 mph 12 mph 62.5% 0.00 in 0 W/m2
16:59 38.6 °F 26.4 °F 30.00 in WSW 1.3 mph 12 mph 61.2% 0.00 in 0 W/m2
17:04 38.6 °F 26.3 °F 30.00 in WSW 0.7 mph 12 mph 61% 0.00 in 0 W/m2
17:09 38.5 °F 26.1 °F 30.00 in WSW 1.6 mph 7 mph 60.8% 0.00 in 0 W/m2
17:14 38.3 °F 25.7 °F 30.00 in West 1.2 mph 7 mph 60% 0.00 in 0 W/m2
17:19 38.2 °F 25.5 °F 30.00 in WSW 0.3 mph 7 mph 60% 0.00 in 0 W/m2
17:24 38 °F 25.4 °F 30.00 in WSW 0.1 mph 7 mph 60% 0.00 in 0 W/m2
17:29 37.8 °F 25.5 °F 30.01 in Calm   7 mph 60.8% 0.00 in 0 W/m2
17:34 37.6 °F 25.4 °F 30.01 in WSW 0.2 mph 7 mph 61% 0.00 in 0 W/m2
17:39 37.4 °F 25.2 °F 30.01 in Calm   2 mph 61% 0.00 in 0 W/m2
17:44 37.2 °F 25 °F 30.01 in WSW 0.2 mph 3 mph 61% 0.00 in 0 W/m2
17:49 37 °F 25.1 °F 30.01 in WSW 0.2 mph 3 mph 61.8% 0.00 in 0 W/m2
17:54 36.8 °F 25 °F 30.01 in WSW 0.1 mph 3 mph 62% 0.00 in 0 W/m2
17:59 36.6 °F 24.8 °F 30.02 in Calm   3 mph 62% 0.00 in 0 W/m2
18:04 36.4 °F 25 °F 30.02 in WSW 0.3 mph 3 mph 62.9% 0.00 in 0 W/m2
18:09 36.3 °F 25 °F 30.02 in Calm   3 mph 63% 0.00 in 0 W/m2
18:14 36.2 °F 24.8 °F 30.02 in WSW 0.3 mph 3 mph 63% 0.00 in 0 W/m2
18:19 36.1 °F 24.8 °F 30.02 in WSW 0.1 mph 3 mph 63% 0.00 in 0 W/m2
18:24 36 °F 24.7 °F 30.02 in WSW 0.1 mph 3 mph 63% 0.00 in 0 W/m2
18:29 35.9 °F 24.6 °F 30.03 in Calm   3 mph 63% 0.00 in 0 W/m2
18:34 35.9 °F 24.6 °F 30.03 in Calm   3 mph 63.1% 0.00 in 0 W/m2
18:39 35.7 °F 24.7 °F 30.03 in Calm     63.8% 0.00 in 0 W/m2
18:44 35.6 °F 24.5 °F 30.02 in Calm     63.5% 0.00 in 0 W/m2
18:49 35.5 °F 24.6 °F 30.03 in Calm     64% 0.00 in 0 W/m2
18:54 35.5 °F 24.5 °F 30.02 in Calm     64% 0.00 in 0 W/m2
18:59 35.3 °F 24.5 °F 30.03 in Calm     64.5% 0.00 in 0 W/m2
19:04 35.2 °F 24.7 °F 30.03 in Calm   1 mph 65% 0.00 in 0 W/m2
19:09 35.3 °F 25.1 °F 30.03 in WSW 0.1 mph 2 mph 66% 0.00 in 0 W/m2
19:14 35.3 °F 25 °F 30.03 in WSW 0.6 mph 3 mph 65.9% 0.00 in 0 W/m2
19:19 35.4 °F 25.2 °F 30.03 in WSW 0.3 mph 3 mph 66% 0.00 in 0 W/m2
19:24 35.5 °F 25.3 °F 30.03 in WSW 0.1 mph 3 mph 66% 0.00 in 0 W/m2
19:29 35.4 °F 25.2 °F 30.03 in WSW 0.2 mph 3 mph 66% 0.00 in 0 W/m2
19:34 35.3 °F 25.1 °F 30.03 in WSW 0.4 mph 3 mph 66% 0.00 in 0 W/m2
19:39 35.3 °F 25.1 °F 30.03 in WSW 0.2 mph 2 mph 66% 0.00 in 0 W/m2
19:44 35.3 °F 25.4 °F 30.02 in Calm   2 mph 67% 0.00 in 0 W/m2
19:49 35.3 °F 25.4 °F 30.02 in WSW 0.2 mph 2 mph 67% 0.00 in 0 W/m2
19:54 35.2 °F 25.4 °F 30.02 in WSW 0.1 mph 2 mph 67% 0.00 in 0 W/m2
19:59 35.2 °F 25.6 °F 30.02 in WSW 0.3 mph 3 mph 67.7% 0.00 in 0 W/m2
20:00 35.2 °F 25.7 °F 30.02 in Calm   3 mph 68% 0.00 in 0 W/m2
20:09 35.2 °F 25.7 °F 30.02 in Calm   1 mph 68% 0.00 in 0 W/m2
20:14 35.1 °F 25.6 °F 30.02 in Calm   2 mph 68% 0.00 in 0 W/m2
20:19 35 °F 25.5 °F 30.02 in Calm   2 mph 68% 0.00 in 0 W/m2
20:24 34.8 °F 25.5 °F 30.02 in WSW 0.1 mph 3 mph 68.4% 0.00 in 0 W/m2
20:29 34.7 °F 25.6 °F 30.02 in Calm   3 mph 69% 0.00 in 0 W/m2
20:34 34.5 °F 25.4 °F 30.02 in WSW 0.1 mph 3 mph 69.2% 0.00 in 0 W/m2
20:39 34.3 °F 25.6 °F 30.02 in WSW 0.1 mph 2 mph 70% 0.00 in 0 W/m2
20:44 34.2 °F 25.4 °F 30.02 in WSW 0.1 mph 2 mph 70% 0.00 in 0 W/m2
20:49 34.1 °F 25.4 °F 30.02 in WSW 0.2 mph 3 mph 70.3% 0.00 in 0 W/m2
20:54 34.1 °F 25.7 °F 30.01 in WSW 0.1 mph 3 mph 71% 0.00 in 0 W/m2
20:59 34.2 °F 25.8 °F 30.02 in Calm   3 mph 71% 0.00 in 0 W/m2
21:04 34.3 °F 25.9 °F 30.02 in Calm   3 mph 71% 0.00 in 0 W/m2
21:09 34.3 °F 25.9 °F 30.02 in Calm     71% 0.00 in 0 W/m2
21:14 34.3 °F 25.9 °F 30.02 in WSW 0.3 mph 3 mph 71% 0.00 in 0 W/m2
21:19 34.3 °F 25.9 °F 30.02 in WSW 0.3 mph 3 mph 71% 0.00 in 0 W/m2
21:24 34.3 °F 25.9 °F 30.02 in WSW 0.2 mph 3 mph 71% 0.00 in 0 W/m2
21:29 34.3 °F 25.9 °F 30.02 in WSW 0.3 mph 3 mph 71% 0.00 in 0 W/m2
21:34 34.3 °F 25.9 °F 30.02 in WSW 0.5 mph 3 mph 71% 0.00 in 0 W/m2
21:39 34.2 °F 25.8 °F 30.02 in WSW 0.1 mph 3 mph 71% 0.00 in 0 W/m2
21:44 34.1 °F 25.7 °F 30.01 in Calm   3 mph 71% 0.00 in 0 W/m2
21:49 34 °F 25.6 °F 30.02 in Calm   3 mph 71% 0.00 in 0 W/m2
21:54 33.9 °F 25.5 °F 30.02 in Calm   3 mph 71% 0.00 in 0 W/m2
21:59 33.7 °F 25.3 °F 30.02 in WSW 0.1 mph 3 mph 71% 0.00 in 0 W/m2
22:04 33.6 °F 25.2 °F 30.01 in WSW 0.1 mph 3 mph 71% 0.00 in 0 W/m2
22:09 33.4 °F 25.4 °F 30.01 in Calm   2 mph 71.9% 0.00 in 0 W/m2
22:14 33.3 °F 25.3 °F 30.01 in Calm   2 mph 72% 0.00 in 0 W/m2
22:19 33.2 °F 25.1 °F 30.01 in Calm   2 mph 72% 0.00 in 0 W/m2
22:24 33 °F 25.2 °F 30.01 in Calm   2 mph 72.9% 0.00 in 0 W/m2
22:29 32.7 °F 25.1 °F 30.01 in Calm   2 mph 73% 0.00 in 0 W/m2
22:34 32.4 °F 24.9 °F 30.01 in Calm   2 mph 73.3% 0.00 in 0 W/m2
22:39 32.1 °F 24.8 °F 30.00 in Calm     74% 0.00 in 0 W/m2
22:44 31.9 °F 24.9 °F 29.99 in Calm     74.9% 0.00 in 0 W/m2
22:49 31.8 °F 24.8 °F 29.99 in Calm     75% 0.00 in 0 W/m2
22:54 31.8 °F 24.8 °F 29.99 in Calm     75% 0.00 in 0 W/m2
22:59 31.8 °F 24.8 °F 29.98 in Calm     75% 0.00 in 0 W/m2
23:04 31.7 °F 24.7 °F 29.98 in Calm     75% 0.00 in 0 W/m2
23:09 31.7 °F 25 °F 29.99 in Calm     75.8% 0.00 in 0 W/m2
23:14 31.7 °F 25 °F 29.98 in Calm     76% 0.00 in 0 W/m2
23:19 31.7 °F 24.8 °F 29.99 in WSW 0.1 mph 1 mph 75.3% 0.00 in 0 W/m2
23:24 31.7 °F 25.1 °F 29.99 in Calm   1 mph 76% 0.00 in 0 W/m2
23:29 31.7 °F 25 °F 29.99 in Calm   1 mph 76% 0.00 in 0 W/m2
23:34 31.7 °F 25 °F 29.99 in Calm   1 mph 76% 0.00 in 0 W/m2
23:39 31.7 °F 25 °F 29.99 in Calm     76% 0.00 in 0 W/m2
23:44 31.7 °F 25 °F 29.98 in Calm     76% 0.00 in 0 W/m2
23:49 31.8 °F 25.1 °F 29.97 in Calm     76% 0.00 in 0 W/m2
23:54 31.9 °F 24.9 °F 29.98 in Calm     75.1% 0.00 in 0 W/m2
23:59 32 °F 25 °F 29.97 in Calm     75% 0.00 in 0 W/m2
Hartford County Weather
Compliments of Weather Underground - 4 mb